Tingley, Iowa
Current Conditions -  °F | °C
As of 1:15 PM on Friday 24 Oct 2014 (Local Time) from KCSQ Reporting Station
Haze Haze  
Wind Chill: 63°   Ceiling: 500
Heat Index: 63°   Visibility: 3mi
Dew Point: 63°   Wind: 15mph
Humidity: 100%   Direction: 200°SSW
Pressure: 29.94"   Gusts: NA
Location:  40.85°N, 94.2°W
Report Text: KCSQ 241815Z AUTO 20013KT 3SM BR OVC005 17/17 A2994 RMK AO2
Loading
Personal Weather Stations






























Interactive Weather Map
Tropical Storm Tracking
New forecast layout! Learn more

10-Day Weather Forecast

Advertisements
Track Severe Weather on mobile